Kezdőlap
METAR-TAF:

METAR-TAF

Repülőterek :

Xi'an, Kína

földrajzi szélesség: 34-26N, földrajzi hosszúság: 108-45E, magasság: 479 m

Jelenlegi meteorológiai megfigyelések

A jelentés 10 órával és 20 perccel ezelõtt készült, 15:00 UTC
Nyugati szél 2 kt
Hőmérséklet 2°C
Páratartalom 100%
Légköri nyomás 1029 hPa
Látótávolság: 5000 m
Kevés felhő 1800 lábon
Szórványos felhőzet 2600 lábon
Borult 5000 lábon
enyhe esõ, Párásság

METAR: ZLXY 201500Z 26001MPS 5000 -RA BR FEW018 SCT026 OVC050 02/02 Q1029 NOSIG

Idő: 09:20 (01:20 UTC)

Előrejelzés

A jelentés 16 órával és 19 perccel ezelõtt készült, 09:01 UTC
Az előrejelzés 20-én 12 óra UTC és 21-én 12 óra UTC között érvényes
Nyugati szél 8 kt
Látótávolság: 2800 m
Borult 5000 lábon
enyhe havazás, esõ, Párásság
20-én 14 óra UTC és 20-én 15 óra UTC között fokozatosan kialakuló
Látótávolság: 3000 m
Párásság

TAF: ZLXY 200901Z 2012/2112 26004MPS 2800 -SNRA BR OVC050 TX08/2107Z TNM04/23Z BECMG 2014/2015 3000 BR

Meteorológiai megfigyelések és előrejelzések több, mint 4000 repülőtéren (METAR és TAF jelentéseket).

A térképen piros és sárga pontok jelzik az elérhető meteorológiai állomásokat.

Mozgassa az egeret a pont fölött, hogy megjelenjen az állomás neve.

Azután kattintson az időjárási megfigyelések és előrejelzések megtekintéséhez.

A térkép megváltoztatása: kattintson a fekete keresztel jelölt zöld gombra ráközelítéshez, a vonallal jelölt zöld gombra távolításhoz, vagy a zöld nyilakra a szomszédos térképek eléréséhez.


METAR-TAF: